Springhill, Texas
Current Conditions -  °F | °C
As of 1:55 PM on Friday 24 Oct 2014 (Local Time) from KLXY Reporting Station
Clear Clear  
Wind Chill: 77°   Ceiling: Unl
Heat Index: 79°   Visibility: 10mi
Dew Point: 58°   Wind: 0mph
Humidity: 53%   Direction: NA
Pressure: 30.14"   Gusts: NA
Location:  31.8746°N, 96.6599°W
Report Text: KLXY 241855Z AUTO 00000KT 10SM CLR 25/15 A3014 RMK AO2 T02490147
Loading
Personal Weather Stations






























Interactive Weather Map
Tropical Storm Tracking
New forecast layout! Learn more

10-Day Weather Forecast

Advertisements
Track Severe Weather on mobile